Time;durP1;ratioP1;P1;durP2;ratioP2;P2;SDS_P1;SDS_P2;PMS_P1;PMS_P2;Temp;Humidity;BMP_temperature;BMP_pressure;BME280_temperature;BME280_humidity;BME280_pressure;Samples;Min_cycle;Max_cycle;Signal;HPM_P1;HPM_P2
2023/05/23 00:01:59;;;;;;;18.77;17.53;;;;;;;14.12;100.00;101381.78;5043375;28;20518;-41
2023/05/23 00:04:26;;;;;;;19.00;17.43;;;;;;;14.14;100.00;101369.00;5043014;28;20455;-41
2023/05/23 00:06:55;;;;;;;18.27;17.07;;;;;;;14.10;100.00;101371.25;5042411;28;21249;-41
2023/05/23 00:09:23;;;;;;;18.70;17.40;;;;;;;14.10;100.00;101365.88;5042640;28;20515;-41
2023/05/23 00:11:50;;;;;;;20.03;18.73;;;;;;;14.15;100.00;101378.69;5042457;28;20952;-42
2023/05/23 00:14:18;;;;;;;19.83;18.47;;;;;;;14.17;100.00;101377.47;5043086;28;20523;-44
2023/05/23 00:16:49;;;;;;;18.77;17.37;;;;;;;14.17;100.00;101372.09;5041683;28;20460;-42
2023/05/23 00:19:17;;;;;;;18.53;17.00;;;;;;;14.24;100.00;101367.56;5042475;28;20463;-41
2023/05/23 00:21:48;;;;;;;17.63;16.57;;;;;;;14.28;100.00;101360.75;5041304;28;20486;-41
2023/05/23 00:24:17;;;;;;;17.77;16.60;;;;;;;14.25;100.00;101358.47;5041322;28;20442;-41
2023/05/23 00:26:45;;;;;;;17.60;16.03;;;;;;;14.23;100.00;101359.72;5039253;28;20468;-40
2023/05/23 00:29:16;;;;;;;17.50;16.20;;;;;;;14.30;100.00;101352.50;5042059;28;20472;-44
2023/05/23 00:31:45;;;;;;;17.37;16.37;;;;;;;14.33;100.00;101357.50;5042403;28;20432;-41
2023/05/23 00:34:16;;;;;;;18.40;17.10;;;;;;;14.30;100.00;101349.81;5042388;28;20492;-43
2023/05/23 00:36:46;;;;;;;17.50;16.40;;;;;;;14.33;100.00;101346.75;5041559;28;20467;-41
2023/05/23 00:39:18;;;;;;;18.07;16.77;;;;;;;14.40;100.00;101344.88;5032645;28;20473;-45
2023/05/23 00:41:47;;;;;;;17.60;16.53;;;;;;;14.41;100.00;101343.88;5022792;28;20461;-41
2023/05/23 00:44:20;;;;;;;18.50;17.30;;;;;;;14.45;100.00;101347.78;5023395;28;20520;-41
2023/05/23 00:46:51;;;;;;;17.10;15.90;;;;;;;14.49;100.00;101343.63;5021980;28;20473;-41
2023/05/23 00:49:20;;;;;;;17.40;16.40;;;;;;;14.49;100.00;101349.00;5022382;28;20461;-41
2023/05/23 00:51:49;;;;;;;17.00;16.00;;;;;;;14.46;100.00;101344.06;5022339;28;20425;-41
2023/05/23 00:54:20;;;;;;;17.27;15.73;;;;;;;14.46;100.00;101341.38;5023126;28;20524;-42
2023/05/23 00:56:48;;;;;;;18.30;17.00;;;;;;;14.44;100.00;101331.88;5021939;28;20863;-41
2023/05/23 00:59:16;;;;;;;18.60;17.30;;;;;;;14.38;100.00;101341.59;5022674;28;20721;-41
2023/05/23 01:01:45;;;;;;;16.37;15.57;;;;;;;14.35;100.00;101332.09;5022286;28;20464;-41
2023/05/23 01:04:15;;;;;;;17.63;16.53;;;;;;;14.34;100.00;101335.81;5022514;28;20508;-42
2023/05/23 01:06:45;;;;;;;17.70;16.60;;;;;;;14.33;100.00;101336.84;5021831;28;20461;-40
2023/05/23 01:09:14;;;;;;;18.57;17.13;;;;;;;14.22;100.00;101334.75;5022608;28;20442;-42
2023/05/23 01:11:49;;;;;;;18.50;17.10;;;;;;;14.21;100.00;101329.59;5022558;28;20441;-41
2023/05/23 01:14:22;;;;;;;17.87;16.77;;;;;;;14.24;100.00;101321.13;5022491;28;20429;-40
2023/05/23 01:16:56;;;;;;;17.43;16.33;;;;;;;14.25;100.00;101310.19;5022004;28;20816;-40
2023/05/23 01:19:48;;;;;;;18.37;17.10;;;;;;;14.24;100.00;101305.03;5022706;28;20468;-41
2023/05/23 01:22:29;;;;;;;17.07;15.83;;;;;;;14.21;100.00;101303.59;5021982;28;20425;-41
2023/05/23 01:25:07;;;;;;;19.40;18.10;;;;;;;14.23;100.00;101301.53;5022442;28;20436;-43
2023/05/23 01:27:49;;;;;;;18.90;17.50;;;;;;;14.25;100.00;101302.13;5034914;28;20542;-41
2023/05/23 01:30:20;;;;;;;19.33;17.80;;;;;;;14.28;100.00;101299.03;5041856;28;20448;-41
2023/05/23 01:32:50;;;;;;;18.37;17.23;;;;;;;14.30;100.00;101305.03;5041670;28;20432;-41
2023/05/23 01:35:22;;;;;;;19.20;17.80;;;;;;;14.24;100.00;101305.03;5040810;28;20440;-41
2023/05/23 01:37:49;;;;;;;19.27;17.63;;;;;;;14.23;100.00;101296.16;5041519;28;20452;-41
2023/05/23 01:40:17;;;;;;;17.93;16.73;;;;;;;14.28;100.00;101299.03;5041121;28;20531;-41
2023/05/23 01:42:47;;;;;;;18.27;16.93;;;;;;;14.32;100.00;101294.09;5041460;28;20460;-41
2023/05/23 01:45:16;;;;;;;20.50;18.83;;;;;;;14.32;100.00;101284.22;5041018;28;20774;-41
2023/05/23 01:47:45;;;;;;;19.60;18.23;;;;;;;14.35;100.00;101294.53;5041405;28;20479;-42
2023/05/23 01:50:14;;;;;;;18.50;17.20;;;;;;;14.35;100.00;101291.84;5041720;28;20428;-41
2023/05/23 01:52:42;;;;;;;18.40;17.30;;;;;;;14.38;100.00;101295.97;5041238;28;20486;-41
2023/05/23 01:55:10;;;;;;;18.53;17.20;;;;;;;14.41;100.00;101292.88;5040662;28;20963;-41
2023/05/23 01:57:39;;;;;;;19.90;18.50;;;;;;;14.39;100.00;101293.06;5041536;28;20432;-40
2023/05/23 02:00:10;;;;;;;19.50;18.13;;;;;;;14.40;100.00;101291.22;5041241;28;20504;-42
2023/05/23 02:02:38;;;;;;;21.37;19.57;;;;;;;14.42;100.00;101294.53;5041333;28;20428;-41
2023/05/23 02:05:07;;;;;;;20.00;18.63;;;;;;;14.32;100.00;101300.31;5040120;28;20436;-42
2023/05/23 02:07:34;;;;;;;20.50;18.97;;;;;;;14.31;100.00;101300.47;5040262;28;20436;-41
2023/05/23 02:10:03;;;;;;;20.67;18.90;;;;;;;14.23;100.00;101304.22;5040822;28;20830;-40
2023/05/23 02:12:31;;;;;;;21.43;19.33;;;;;;;14.19;100.00;101302.13;5040440;28;20439;-41
2023/05/23 02:14:59;;;;;;;20.27;19.03;;;;;;;14.14;100.00;101301.94;5040888;28;20462;-41
2023/05/23 02:17:28;;;;;;;20.57;19.07;;;;;;;14.13;100.00;101294.91;5040421;28;20478;-41
2023/05/23 02:19:56;;;;;;;21.10;19.40;;;;;;;14.12;100.00;101296.78;5040960;28;20476;-41
2023/05/23 02:22:24;;;;;;;19.87;18.57;;;;;;;14.08;100.00;101298.22;5040090;28;20432;-42
2023/05/23 02:24:52;;;;;;;20.80;19.20;;;;;;;14.02;100.00;101295.53;5040090;28;20424;-41
2023/05/23 02:27:19;;;;;;;21.50;19.30;;;;;;;14.03;100.00;101297.19;5038484;28;20519;-44
2023/05/23 02:29:47;;;;;;;19.97;18.57;;;;;;;14.05;100.00;101303.16;5040544;28;20424;-41
2023/05/23 02:32:15;;;;;;;20.40;18.70;;;;;;;14.08;100.00;101300.06;5040449;28;20435;-42
2023/05/23 02:34:45;;;;;;;20.30;18.80;;;;;;;14.06;100.00;101297.63;5040363;28;20431;-42
2023/05/23 02:37:13;;;;;;;19.93;18.60;;;;;;;14.06;100.00;101312.88;5039437;28;20464;-42
2023/05/23 02:39:41;;;;;;;19.13;17.73;;;;;;;13.99;100.00;101312.03;5039818;28;20472;-41
2023/05/23 02:42:09;;;;;;;21.00;19.50;;;;;;;13.99;100.00;101287.91;5040080;28;20787;-41
2023/05/23 02:44:37;;;;;;;19.40;18.10;;;;;;;14.03;100.00;101283.78;5039945;28;21007;-42
2023/05/23 02:47:06;;;;;;;19.73;18.33;;;;;;;14.00;100.00;101295.75;5038831;28;20470;-41
2023/05/23 02:49:34;;;;;;;19.57;18.27;;;;;;;13.90;100.00;101307.91;5039267;28;20986;-41
2023/05/23 02:52:03;;;;;;;22.07;19.23;;;;;;;13.89;100.00;101296.34;5038669;28;20464;-41
2023/05/23 02:54:30;;;;;;;18.77;17.57;;;;;;;13.90;100.00;101306.03;5040060;28;20522;-43
2023/05/23 02:56:58;;;;;;;19.67;18.17;;;;;;;13.83;100.00;101297.16;5039138;28;20463;-43
2023/05/23 02:59:26;;;;;;;18.50;17.27;;;;;;;13.84;100.00;101290.78;5039186;28;20526;-41
2023/05/23 03:01:55;;;;;;;20.33;19.03;;;;;;;13.79;100.00;101293.25;5039206;28;20428;-42
2023/05/23 03:04:23;;;;;;;20.33;18.77;;;;;;;13.78;100.00;101283.56;5039250;28;20431;-44
2023/05/23 03:06:53;;;;;;;19.33;18.00;;;;;;;13.81;100.00;101289.34;5038740;28;20487;-42
2023/05/23 03:09:22;;;;;;;20.97;19.40;;;;;;;13.78;100.00;101292.44;5039162;28;20869;-44
2023/05/23 03:11:50;;;;;;;20.37;19.00;;;;;;;13.73;100.00;101305.63;5038966;28;20905;-41
2023/05/23 03:14:17;;;;;;;21.13;19.67;;;;;;;13.69;100.00;101290.13;5039434;28;20428;-44
2023/05/23 03:16:45;;;;;;;21.90;20.20;;;;;;;13.59;100.00;101297.75;5038632;28;20470;-43
2023/05/23 03:19:13;;;;;;;21.63;20.13;;;;;;;13.61;100.00;101296.53;5040538;28;20547;-43
2023/05/23 03:21:41;;;;;;;23.77;21.67;;;;;;;13.61;100.00;101304.56;5043220;28;20519;-45
2023/05/23 03:24:08;;;;;;;22.00;20.20;;;;;;;13.60;100.00;101300.22;5043734;28;20463;-41
2023/05/23 03:26:37;;;;;;;21.27;19.67;;;;;;;13.60;100.00;101305.56;5041446;28;20467;-41
2023/05/23 03:29:06;;;;;;;21.40;19.37;;;;;;;13.59;100.00;101295.06;5043148;28;20447;-46
2023/05/23 03:31:33;;;;;;;20.50;19.20;;;;;;;13.56;100.00;101304.31;5042032;28;20428;-42
2023/05/23 03:34:01;;;;;;;21.50;19.90;;;;;;;13.52;100.00;101296.91;5042850;28;20432;-44
2023/05/23 03:36:32;;;;;;;21.10;19.70;;;;;;;13.56;100.00;101295.47;5042370;28;20460;-41
2023/05/23 03:39:00;;;;;;;20.67;19.27;;;;;;;13.53;100.00;101302.03;5042296;28;20462;-44
2023/05/23 03:41:27;;;;;;;21.73;19.97;;;;;;;13.55;100.00;101296.50;5041804;28;20471;-42
2023/05/23 03:43:57;;;;;;;21.10;19.70;;;;;;;13.55;100.00;101296.50;5042675;28;20465;-42
2023/05/23 03:46:24;;;;;;;21.60;20.00;;;;;;;13.54;100.00;101290.31;5042154;28;20996;-41
2023/05/23 03:48:52;;;;;;;20.90;19.50;;;;;;;13.56;100.00;101293.59;5042572;28;21012;-41
2023/05/23 03:51:20;;;;;;;20.70;19.20;;;;;;;13.60;100.00;101291.34;5042535;28;20466;-41
2023/05/23 03:53:48;;;;;;;19.83;18.43;;;;;;;13.69;100.00;101287.44;5042105;28;20529;-41
2023/05/23 03:56:15;;;;;;;19.70;18.50;;;;;;;13.71;100.00;101291.56;5042108;28;20474;-41
2023/05/23 03:58:43;;;;;;;20.47;19.07;;;;;;;13.71;100.00;101283.53;5041490;28;20452;-42
2023/05/23 04:01:12;;;;;;;20.57;18.80;;;;;;;13.77;100.00;101295.28;5042533;28;20838;-43
2023/05/23 04:03:40;;;;;;;18.67;17.30;;;;;;;13.80;100.00;101290.34;5042091;28;20471;-43
2023/05/23 04:06:08;;;;;;;19.73;18.03;;;;;;;13.86;100.00;101299.44;5041525;28;20464;-41
2023/05/23 04:08:35;;;;;;;18.33;16.77;;;;;;;13.92;100.00;101300.50;5041424;28;20996;-45
2023/05/23 04:11:03;;;;;;;18.67;17.53;;;;;;;13.95;100.00;101313.50;5042273;28;20543;-42
2023/05/23 04:13:32;;;;;;;17.77;16.57;;;;;;;14.00;100.00;101309.16;5042176;28;20750;-42
2023/05/23 04:16:00;;;;;;;19.53;18.03;;;;;;;14.03;100.00;101315.97;5041951;28;20464;-42
2023/05/23 04:18:29;;;;;;;18.27;16.97;;;;;;;14.03;100.00;101319.47;5041610;28;20524;-44
2023/05/23 04:20:57;;;;;;;17.33;16.13;;;;;;;14.03;100.00;101315.97;5042028;28;20539;-47
2023/05/23 04:23:24;;;;;;;18.33;16.80;;;;;;;14.00;100.00;101316.38;5041907;28;21020;-44
2023/05/23 04:25:52;;;;;;;17.50;16.40;;;;;;;14.01;100.00;101313.47;5040533;28;21044;-46
2023/05/23 04:28:20;;;;;;;18.27;16.77;;;;;;;14.02;100.00;101309.78;5041513;28;20513;-42
2023/05/23 04:30:48;;;;;;;18.13;16.57;;;;;;;13.98;100.00;101313.09;5039956;28;20424;-45
2023/05/23 04:33:17;;;;;;;19.13;17.63;;;;;;;14.02;100.00;101300.91;5041453;28;20464;-41
2023/05/23 04:35:46;;;;;;;17.33;16.23;;;;;;;14.09;100.00;101310.63;5040981;28;20463;-43
2023/05/23 04:38:14;;;;;;;18.77;17.33;;;;;;;14.05;100.00;101311.22;5041506;28;20553;-42
2023/05/23 04:40:42;;;;;;;19.37;18.17;;;;;;;14.00;100.00;101313.69;5041913;28;20571;-43
2023/05/23 04:43:13;;;;;;;19.30;18.10;;;;;;;14.02;100.00;101315.13;5040806;28;20926;-42
2023/05/23 04:45:41;;;;;;;20.00;18.70;;;;;;;14.04;100.00;101318.44;5040590;28;20462;-41
2023/05/23 04:48:11;;;;;;;18.93;17.73;;;;;;;14.01;100.00;101316.16;5041506;28;20521;-42
2023/05/23 04:50:39;;;;;;;19.33;18.13;;;;;;;14.04;100.00;101313.06;5041581;28;20550;-42
2023/05/23 04:53:08;;;;;;;20.63;19.17;;;;;;;14.03;100.00;101316.78;5041981;28;20440;-42
2023/05/23 04:55:36;;;;;;;21.20;19.70;;;;;;;14.07;100.00;101320.69;5040776;28;20456;-43
2023/05/23 04:58:04;;;;;;;20.70;19.30;;;;;;;14.09;100.00;101320.50;5041300;28;20456;-41
2023/05/23 05:00:31;;;;;;;20.47;19.17;;;;;;;14.08;100.00;101326.91;5041448;28;20811;-41
2023/05/23 05:02:59;;;;;;;20.20;18.80;;;;;;;14.15;100.00;101333.09;5040885;28;20432;-41
2023/05/23 05:05:27;;;;;;;20.80;19.37;;;;;;;14.13;100.00;101335.97;5040378;28;20527;-41
2023/05/23 05:07:55;;;;;;;22.53;21.23;;;;;;;13.97;100.00;101325.66;5041138;28;20456;-40
2023/05/23 05:10:24;;;;;;;23.50;21.93;;;;;;;13.88;100.00;101345.66;5041597;28;20525;-40
2023/05/23 05:12:51;;;;;;;22.90;21.17;;;;;;;13.89;100.00;101338.44;5040588;28;20463;-40
2023/05/23 05:15:19;;;;;;;23.87;22.43;;;;;;;13.73;100.00;101342.31;5040859;28;20436;-46
2023/05/23 05:17:47;;;;;;;24.87;23.27;;;;;;;13.68;100.00;101344.75;5041311;28;20456;-45
2023/05/23 05:20:16;;;;;;;23.53;21.80;;;;;;;13.67;100.00;101354.69;5040233;28;20833;-41
2023/05/23 05:22:45;;;;;;;22.70;21.00;;;;;;;13.70;100.00;101356.13;5041322;28;20521;-43
2023/05/23 05:25:13;;;;;;;22.67;21.03;;;;;;;13.61;100.00;101360.84;5040806;28;20436;-43
2023/05/23 05:27:42;;;;;;;22.80;21.20;;;;;;;13.55;100.00;101358.97;5032225;28;20598;-41
2023/05/23 05:30:11;;;;;;;22.37;20.83;;;;;;;13.61;100.00;101365.38;5041241;28;20428;-44
2023/05/23 05:32:38;;;;;;;23.53;21.63;;;;;;;13.62;100.00;101370.50;5039945;28;20459;-43
2023/05/23 05:35:07;;;;;;;24.07;22.27;;;;;;;13.62;100.00;101372.41;5041328;28;20428;-47
2023/05/23 05:37:35;;;;;;;24.63;22.87;;;;;;;13.51;100.00;101381.81;5039944;28;20522;-42
2023/05/23 05:40:07;;;;;;;23.83;22.33;;;;;;;13.51;100.00;101379.13;5040288;28;20443;-42
2023/05/23 05:42:34;;;;;;;24.47;22.87;;;;;;;13.52;100.00;101385.34;5040271;28;20559;-41
2023/05/23 05:45:04;;;;;;;24.60;22.80;;;;;;;13.48;100.00;101381.38;5040132;28;20438;-43
2023/05/23 05:47:33;;;;;;;25.07;23.17;;;;;;;13.48;100.00;101382.22;5036205;28;20484;-46
2023/05/23 05:50:01;;;;;;;25.73;23.43;;;;;;;13.45;100.00;101387.97;5040386;28;20440;-40
2023/05/23 05:52:29;;;;;;;23.50;21.87;;;;;;;13.51;100.00;101380.97;5039949;28;20470;-42
2023/05/23 05:54:57;;;;;;;22.80;21.10;;;;;;;13.54;100.00;101375.22;5039914;28;20762;-42
2023/05/23 05:57:25;;;;;;;25.63;23.63;;;;;;;13.55;100.00;101372.38;5040132;28;20890;-41
2023/05/23 05:59:53;;;;;;;23.97;22.30;;;;;;;13.53;100.00;101390.47;5040352;28;20436;-45
2023/05/23 06:02:22;;;;;;;24.47;22.87;;;;;;;13.54;100.00;101378.75;5040258;28;21005;-43
2023/05/23 06:04:49;;;;;;;24.20;22.63;;;;;;;13.51;100.00;101391.69;5040850;28;20494;-41
2023/05/23 06:07:17;;;;;;;24.20;22.77;;;;;;;13.42;100.00;101391.06;5040466;28;20459;-43
2023/05/23 06:09:45;;;;;;;22.47;21.10;;;;;;;13.43;100.00;101400.75;5041136;28;20452;-44
2023/05/23 06:12:13;;;;;;;24.80;22.90;;;;;;;13.34;100.00;101409.97;5039690;28;20424;-41
2023/05/23 06:14:40;;;;;;;21.87;20.23;;;;;;;13.22;100.00;101419.59;5040544;28;20523;-45
2023/05/23 06:17:08;;;;;;;26.40;24.73;;;;;;;13.12;100.00;101419.09;5037920;28;20463;-42
2023/05/23 06:19:38;;;;;;;26.60;24.73;;;;;;;13.09;100.00;101412.31;5040644;28;20478;-42
2023/05/23 06:22:06;;;;;;;26.17;24.40;;;;;;;12.93;100.00;101425.94;5039591;28;20467;-41
2023/05/23 06:24:33;;;;;;;28.03;26.03;;;;;;;12.87;100.00;101426.75;5040246;28;20527;-42
2023/05/23 06:27:01;;;;;;;26.50;24.80;;;;;;;12.81;100.00;101434.72;5038492;28;20464;-41
2023/05/23 06:29:30;;;;;;;23.60;22.10;;;;;;;12.76;100.00;101428.09;5040334;28;20452;-41
2023/05/23 06:31:58;;;;;;;22.30;20.77;;;;;;;12.80;100.00;101431.22;5040776;28;20460;-41
2023/05/23 06:34:25;;;;;;;22.37;20.73;;;;;;;12.84;100.00;101434.34;5040224;28;20436;-41
2023/05/23 06:36:54;;;;;;;21.50;20.00;;;;;;;12.89;100.00;101434.56;5039688;28;20463;-43
2023/05/23 06:39:22;;;;;;;23.00;21.30;;;;;;;12.97;100.00;101437.09;5040585;28;20480;-41
2023/05/23 06:41:50;;;;;;;23.47;22.03;;;;;;;13.10;100.00;101437.22;5040366;28;20492;-41
2023/05/23 06:44:17;;;;;;;21.60;20.17;;;;;;;13.22;100.00;101444.53;5041009;28;20440;-40
2023/05/23 06:46:46;;;;;;;20.60;19.20;;;;;;;13.49;100.00;101436.63;5039035;28;20989;-41
2023/05/23 06:49:14;;;;;;;21.30;19.73;;;;;;;13.54;100.00;101429.66;5040260;28;20456;-44
2023/05/23 06:51:42;;;;;;;24.30;22.40;;;;;;;13.60;100.00;101428.84;5039263;28;20435;-41
2023/05/23 06:54:11;;;;;;;25.50;23.33;;;;;;;13.67;100.00;101432.41;5039415;28;20432;-41
2023/05/23 06:56:39;;;;;;;24.57;22.87;;;;;;;13.64;100.00;101424.75;5040083;28;20457;-42
2023/05/23 06:59:07;;;;;;;25.77;23.93;;;;;;;13.58;100.00;101430.91;5040379;28;20448;-44
2023/05/23 07:01:35;;;;;;;26.40;24.40;;;;;;;13.57;100.00;101436.47;5040257;28;20498;-42
2023/05/23 07:04:02;;;;;;;27.73;25.67;;;;;;;13.41;100.00;101450.22;5039675;28;20428;-42
2023/05/23 07:06:31;;;;;;;26.23;24.27;;;;;;;13.16;100.00;101452.53;5039715;28;20467;-42
2023/05/23 07:08:59;;;;;;;28.50;26.33;;;;;;;12.97;100.00;101448.63;5039959;28;20459;-44
2023/05/23 07:11:28;;;;;;;25.93;24.20;;;;;;;12.81;100.00;101458.81;5040538;28;20444;-42
2023/05/23 07:13:56;;;;;;;27.87;25.67;;;;;;;12.72;100.00;101482.22;5040171;28;20432;-42
2023/05/23 07:16:23;;;;;;;26.77;24.67;;;;;;;12.57;100.00;101481.47;5037539;28;20464;-42
2023/05/23 07:18:51;;;;;;;25.30;23.53;;;;;;;12.42;100.00;101492.22;5040204;28;20458;-41
2023/05/23 07:21:19;;;;;;;23.37;21.23;;;;;;;12.36;100.00;101498.34;5039975;28;20462;-41
2023/05/23 07:23:47;;;;;;;21.87;20.03;;;;;;;12.19;100.00;101500.41;5040231;28;20774;-41
2023/05/23 07:26:15;;;;;;;22.50;20.70;;;;;;;12.07;100.00;101501.06;5038356;28;20488;-44
2023/05/23 07:28:44;;;;;;;21.07;19.57;;;;;;;11.95;100.00;101523.94;5039306;28;20484;-41
2023/05/23 07:31:12;;;;;;;20.23;18.77;;;;;;;11.95;100.00;101511.41;5039870;28;20837;-41
2023/05/23 07:33:40;;;;;;;22.23;20.80;;;;;;;11.83;100.00;101515.59;5040003;28;20440;-41
2023/05/23 07:36:08;;;;;;;19.40;18.27;;;;;;;11.74;100.00;101524.72;5039690;28;20460;-42
2023/05/23 07:38:36;;;;;;;19.57;18.37;;;;;;;11.80;100.00;101523.16;5040796;28;20456;-42
2023/05/23 07:41:03;;;;;;;19.30;18.20;;;;;;;11.81;100.00;101525.63;5039555;28;20458;-41
2023/05/23 07:43:39;;;;;;;19.27;18.00;;;;;;;11.81;100.00;101525.63;5039022;28;20884;-42
2023/05/23 07:46:08;;;;;;;18.73;17.60;;;;;;;11.82;100.00;101521.97;5037187;28;20503;-42
2023/05/23 07:48:35;;;;;;;18.63;17.50;;;;;;;11.75;100.00;101514.84;5039886;28;20464;-42
2023/05/23 07:51:03;;;;;;;18.40;17.10;;;;;;;11.79;100.00;101527.69;5039856;28;20428;-41
2023/05/23 07:53:31;;;;;;;17.00;16.10;;;;;;;11.64;100.00;101541.00;5039690;28;20463;-42
2023/05/23 07:55:59;;;;;;;17.97;16.70;;;;;;;11.58;100.00;101562.28;5039444;28;20432;-42
2023/05/23 07:58:26;;;;;;;16.30;15.50;;;;;;;11.49;100.00;101544.69;5039115;28;20482;-41
2023/05/23 08:00:54;;;;;;;16.57;15.67;;;;;;;11.52;100.00;101534.47;5040086;28;20443;-42
2023/05/23 08:03:23;;;;;;;17.07;15.97;;;;;;;11.57;100.00;101540.06;5039470;28;20468;-42
2023/05/23 08:05:51;;;;;;;16.80;15.80;;;;;;;11.68;100.00;101542.28;5041050;28;20436;-45
2023/05/23 08:08:18;;;;;;;15.00;14.23;;;;;;;11.62;100.00;101545.69;5042988;28;20539;-44
2023/05/23 08:10:46;;;;;;;16.03;15.13;;;;;;;11.62;100.00;101528.81;5042910;28;20963;-42
2023/05/23 08:13:13;;;;;;;15.90;14.83;;;;;;;11.65;100.00;101545.31;5042610;28;20524;-44
2023/05/23 08:15:41;;;;;;;15.40;14.70;;;;;;;11.75;100.00;101546.91;5042573;28;20879;-42
2023/05/23 08:18:10;;;;;;;15.57;14.67;;;;;;;11.75;100.00;101549.59;5032943;28;20476;-42
2023/05/23 08:20:39;;;;;;;15.67;14.90;;;;;;;11.82;100.00;101548.69;5042963;28;20797;-42
2023/05/23 08:23:07;;;;;;;15.20;14.50;;;;;;;11.89;100.00;101543.41;5042826;28;21000;-42
2023/05/23 08:25:35;;;;;;;15.20;14.60;;;;;;;11.79;100.00;101551.72;5042609;28;20462;-42
2023/05/23 08:28:02;;;;;;;16.43;15.60;;;;;;;11.84;100.00;101557.34;5040765;28;20484;-43
2023/05/23 08:30:32;;;;;;;15.53;14.93;;;;;;;11.83;100.00;101565.53;5042519;28;20444;-42
2023/05/23 08:33:03;;;;;;;16.53;15.83;;;;;;;11.94;100.00;101567.75;5042029;28;20854;-45
2023/05/23 08:35:33;;;;;;;16.90;15.90;;;;;;;11.92;100.00;101573.25;5043014;28;20439;-42
2023/05/23 08:38:04;;;;;;;16.90;15.70;;;;;;;11.97;100.00;101570.88;5041827;28;20464;-41
2023/05/23 08:40:32;;;;;;;16.47;15.57;;;;;;;12.24;100.00;101572.06;5042344;28;20504;-42
2023/05/23 08:43:00;;;;;;;15.53;14.83;;;;;;;12.18;100.00;101564.78;5041884;28;20830;-41
2023/05/23 08:45:29;;;;;;;15.50;14.90;;;;;;;12.17;100.00;101563.13;5042393;28;20511;-45
2023/05/23 08:48:00;;;;;;;16.00;15.40;;;;;;;12.27;100.00;101549.44;5038535;28;20462;-42
2023/05/23 08:50:29;;;;;;;15.80;15.10;;;;;;;12.32;100.00;101558.56;5042617;28;20424;-43
2023/05/23 08:52:58;;;;;;;16.17;15.40;;;;;;;12.36;100.00;101559.84;5042469;28;20482;-44
2023/05/23 08:55:29;;;;;;;17.27;16.07;;;;;;;12.52;100.00;101567.63;5041777;28;20432;-45
2023/05/23 08:57:59;;;;;;;16.83;15.53;;;;;;;12.47;100.00;101559.34;5041644;28;20551;-42
2023/05/23 09:00:28;;;;;;;17.23;16.20;;;;;;;12.31;100.00;101575.63;5041444;28;20434;-41
2023/05/23 09:02:56;;;;;;;16.80;15.87;;;;;;;12.20;100.00;101574.25;5041138;28;20486;-42
2023/05/23 09:05:26;;;;;;;19.17;17.20;;;;;;;12.20;100.00;101568.09;5041417;28;20460;-42
2023/05/23 09:07:55;;;;;;;17.17;16.00;;;;;;;12.28;100.00;101575.16;5041208;28;20510;-42
2023/05/23 09:10:23;;;;;;;18.50;17.00;;;;;;;12.15;100.00;101560.63;5042308;28;20519;-44
2023/05/23 09:12:52;;;;;;;18.07;16.57;;;;;;;12.29;100.00;101583.00;5041311;28;20428;-43
2023/05/23 09:15:21;;;;;;;17.77;16.47;;;;;;;12.32;100.00;101587.97;5042019;28;20914;-44
2023/05/23 09:17:49;;;;;;;16.63;15.50;;;;;;;12.47;100.00;101575.41;5037903;28;20522;-44
2023/05/23 09:20:18;;;;;;;18.27;17.27;;;;;;;12.30;100.00;101589.19;5041996;28;20466;-41
2023/05/23 09:22:47;;;;;;;19.50;17.67;;;;;;;12.25;100.00;101584.38;5041045;28;20507;-41
2023/05/23 09:25:15;;;;;;;18.43;16.70;;;;;;;12.44;100.00;101589.16;5040769;28;20451;-41
2023/05/23 09:27:43;;;;;;;18.57;16.10;;;;;;;12.55;100.00;101580.63;5038863;28;20452;-42
2023/05/23 09:30:17;;;;;;;16.77;15.90;;;;;;;12.70;100.00;101597.47;5040521;28;20435;-44
2023/05/23 09:32:58;;;;;;;18.47;17.20;;;;;;;12.77;100.00;101595.72;5040719;28;20436;-44
2023/05/23 09:35:30;;;;;;;17.67;16.57;;;;;;;12.78;100.00;101591.19;5040465;28;20930;-44
2023/05/23 09:37:59;;;;;;;18.27;16.83;;;;;;;12.70;100.00;101613.53;5040078;28;20814;-43
2023/05/23 09:40:31;;;;;;;17.90;16.90;;;;;;;12.67;100.00;101597.03;5040815;28;20436;-42
2023/05/23 09:43:02;;;;;;;19.60;18.20;;;;;;;12.48;100.00;101601.16;5040097;28;20480;-43
2023/05/23 09:45:32;;;;;;;17.97;16.67;;;;;;;12.48;100.00;101608.34;5041133;28;20424;-42
2023/05/23 09:48:00;;;;;;;17.03;15.90;;;;;;;12.42;100.00;101606.41;5039527;28;20484;-43
2023/05/23 09:50:32;;;;;;;16.57;15.63;;;;;;;12.44;100.00;101607.88;5040196;28;20523;-42
2023/05/23 09:53:00;;;;;;;17.63;16.17;;;;;;;12.54;100.00;101610.28;5040287;28;20432;-42
2023/05/23 09:55:27;;;;;;;18.00;16.20;;;;;;;12.63;100.00;101599.25;5040447;28;20462;-42
2023/05/23 09:57:58;;;;;;;17.33;16.23;;;;;;;12.89;100.00;101597.88;5040430;28;20468;-47
2023/05/23 10:00:27;;;;;;;17.77;16.13;;;;;;;13.01;100.00;101597.19;5040458;28;20511;-43
2023/05/23 10:03:06;;;;;;;16.60;15.30;;;;;;;13.11;100.00;101604.94;5039843;28;20454;-42
2023/05/23 10:05:38;;;;;;;16.10;15.07;;;;;;;13.14;100.00;101613.38;5039563;28;20443;-47
2023/05/23 10:08:10;;;;;;;18.20;16.50;;;;;;;13.15;100.00;101606.19;5039720;28;20487;-43
2023/05/23 10:11:11;;;;;;;16.10;15.03;;;;;;;13.35;100.00;101609.06;5039789;28;20456;-42
2023/05/23 10:13:41;;;;;;;18.23;16.77;;;;;;;13.85;100.00;101617.69;5017659;28;20494;-47
2023/05/23 10:16:14;;;;;;;18.07;16.90;;;;;;;14.06;100.00;101611.41;5040023;28;20444;-42
2023/05/23 10:18:45;;;;;;;19.67;17.40;;;;;;;13.97;100.00;101606.38;5036487;28;20468;-42
2023/05/23 10:21:19;;;;;;;18.83;17.30;;;;;;;14.19;100.00;101600.72;5039712;28;20451;-42
2023/05/23 10:23:47;;;;;;;17.70;16.30;;;;;;;14.36;100.00;101595.88;5039729;28;20471;-41
2023/05/23 10:26:16;;;;;;;19.23;17.77;;;;;;;14.00;100.00;101585.38;5038234;28;20528;-41
2023/05/23 10:28:46;;;;;;;18.10;16.60;;;;;;;13.98;100.00;101603.50;5038244;28;20476;-41
2023/05/23 10:31:14;;;;;;;16.90;16.00;;;;;;;14.05;100.00;101595.50;5039662;28;20435;-41
2023/05/23 10:33:51;;;;;;;19.27;17.77;;;;;;;14.14;100.00;101588.94;5039586;28;20972;-42
2023/05/23 10:36:25;;;;;;;18.30;16.90;;;;;;;14.15;100.00;101593.28;5038784;28;20455;-43
2023/05/23 10:38:58;;;;;;;19.97;17.97;;;;;;;14.23;100.00;101602.00;5039031;28;20464;-42
2023/05/23 10:41:44;;;;;;;18.90;17.10;;;;;;;14.17;100.00;101601.94;5039487;28;20428;-41
2023/05/23 10:44:16;;;;;;;18.63;17.33;;;;;;;14.39;100.00;101600.84;5039390;28;20542;-41
2023/05/23 10:46:52;;;;;;;17.63;16.30;;;;;;;14.53;100.00;101599.03;5039860;28;20427;-41
2023/05/23 10:49:22;;;;;;;18.53;17.10;;;;;;;14.17;100.00;101607.31;5038708;28;20455;-41
2023/05/23 10:51:51;;;;;;;18.13;16.60;;;;;;;14.26;100.00;101593.53;5039217;28;20432;-42
2023/05/23 10:54:20;;;;;;;18.40;17.07;;;;;;;14.33;100.00;101594.44;5038710;28;20949;-47
2023/05/23 10:57:02;;;;;;;18.03;16.60;;;;;;;14.38;100.00;101612.59;5040007;28;20428;-42
2023/05/23 10:59:30;;;;;;;20.03;18.30;;;;;;;14.36;100.00;101598.56;5038596;28;20814;-41
2023/05/23 11:02:00;;;;;;;18.40;17.00;;;;;;;14.15;100.00;101587.91;5039326;28;20432;-42
2023/05/23 11:04:29;;;;;;;19.53;17.83;;;;;;;14.37;100.00;101613.63;5038501;28;21016;-42
2023/05/23 11:06:58;;;;;;;18.73;17.23;;;;;;;14.70;100.00;101613.75;5039599;28;20500;-41
2023/05/23 11:09:25;;;;;;;18.90;17.43;;;;;;;15.07;100.00;101609.69;5034374;28;21007;-42
2023/05/23 11:11:56;;;;;;;19.43;18.13;;;;;;;15.04;100.00;101623.53;5038714;28;20440;-43